Time;durP1;ratioP1;P1;durP2;ratioP2;P2;SDS_P1;SDS_P2;PMS_P1;PMS_P2;Temp;Humidity;BMP_temperature;BMP_pressure;BME280_temperature;BME280_humidity;BME280_pressure;Samples;Min_cycle;Max_cycle;Signal;HPM_P1;HPM_P2
2022/10/30 00:00:57;;;;;;;19.52;9.40;;;;;;;;;;4955175;29;20050;-68
2022/10/30 00:03:23;;;;;;;15.85;8.18;;;16.00;99.90;;;;;;4956412;29;20050;-68
2022/10/30 00:05:50;;;;;;;21.45;8.63;;;15.90;99.90;;;;;;4939198;29;20039;-68
2022/10/30 00:08:19;;;;;;;18.65;8.60;;;16.10;99.90;;;;;;4956519;29;20062;-68
2022/10/30 00:10:45;;;;;;;19.08;8.15;;;16.00;99.90;;;;;;4939051;29;20386;-68
2022/10/30 00:13:12;;;;;;;21.85;8.63;;;15.90;99.90;;;;;;4931429;29;20464;-68
2022/10/30 00:15:38;;;;;;;20.63;8.80;;;15.80;99.90;;;;;;4944373;29;20043;-67
2022/10/30 00:18:04;;;;;;;14.45;7.78;;;;;;;;;;4938529;29;20046;-68
2022/10/30 00:20:30;;;;;;;20.70;7.90;;;;;;;;;;4935317;29;20040;-68
2022/10/30 00:22:56;;;;;;;27.10;8.15;;;15.70;99.90;;;;;;4938784;29;20401;-68
2022/10/30 00:25:22;;;;;;;16.40;7.80;;;;;;;;;;4928201;29;20048;-68
2022/10/30 00:27:48;;;;;;;15.88;7.90;;;;;;;;;;4947116;29;20558;-68
2022/10/30 00:30:15;;;;;;;16.50;8.68;;;15.70;99.90;;;;;;4938974;29;20485;-68
2022/10/30 00:32:41;;;;;;;16.98;8.73;;;;;;;;;;4938537;29;20130;-68
2022/10/30 00:35:09;;;;;;;20.58;8.38;;;15.80;99.90;;;;;;4955067;29;20043;-67
2022/10/30 00:37:34;;;;;;;18.02;8.07;;;15.80;99.90;;;;;;4938786;29;20043;-68
2022/10/30 00:40:00;;;;;;;19.52;9.18;;;;;;;;;;4951875;29;20089;-68
2022/10/30 00:42:30;;;;;;;15.90;8.05;;;15.90;99.90;;;;;;4955825;29;20565;-68
2022/10/30 00:44:56;;;;;;;16.13;7.95;;;15.80;99.90;;;;;;4938648;29;20047;-68
2022/10/30 00:47:26;;;;;;;19.30;8.60;;;15.80;99.90;;;;;;4955643;29;20055;-68
2022/10/30 00:50:35;;;;;;;19.10;8.35;;;15.80;99.90;;;;;;4953900;29;20083;-68
2022/10/30 00:53:06;;;;;;;19.08;8.95;;;15.70;99.90;;;;;;4953095;29;20056;-68
2022/10/30 00:55:38;;;;;;;20.55;8.30;;;15.60;99.90;;;;;;4953573;29;20043;-67
2022/10/30 00:58:08;;;;;;;21.20;8.93;;;15.80;99.90;;;;;;4955106;29;20043;-68
2022/10/30 01:00:35;;;;;;;16.63;9.35;;;15.60;99.90;;;;;;4951815;28;20591;-68
2022/10/30 01:03:02;;;;;;;16.38;8.25;;;15.80;99.90;;;;;;4952922;28;20046;-68
2022/10/30 01:05:29;;;;;;;19.10;7.90;;;15.70;99.90;;;;;;4955265;29;20039;-68
2022/10/30 01:07:55;;;;;;;16.55;8.60;;;15.60;99.90;;;;;;4955528;29;20383;-68
2022/10/30 01:10:21;;;;;;;18.48;8.55;;;15.50;99.90;;;;;;4937016;29;20049;-68
2022/10/30 01:12:48;;;;;;;20.02;8.73;;;15.50;99.90;;;;;;4954296;29;20043;-68
2022/10/30 01:15:14;;;;;;;20.95;9.02;;;15.50;99.90;;;;;;4955327;29;20051;-68
2022/10/30 01:17:49;;;;;;;17.13;8.48;;;15.50;99.90;;;;;;4963730;28;20035;-68
2022/10/30 01:20:26;;;;;;;20.23;8.88;;;15.50;99.90;;;;;;4937278;29;20048;-68
2022/10/30 01:23:04;;;;;;;21.08;9.20;;;15.30;99.90;;;;;;4952076;29;20047;-68
2022/10/30 01:25:30;;;;;;;18.60;8.75;;;;;;;;;;4933610;29;20498;-68
2022/10/30 01:28:24;;;;;;;19.45;9.00;;;15.40;99.90;;;;;;4951703;29;20099;-68
2022/10/30 01:31:14;;;;;;;16.23;8.93;;;15.30;99.90;;;;;;4954172;29;20560;-68
2022/10/30 01:34:06;;;;;;;15.23;9.40;;;15.30;99.90;;;;;;4950303;29;20119;-68
2022/10/30 01:36:59;;;;;;;22.20;9.00;;;15.50;99.90;;;;;;4937685;29;20055;-68
2022/10/30 01:39:28;;;;;;;19.20;9.50;;;15.10;99.90;;;;;;4935726;29;20051;-68
2022/10/30 01:41:54;;;;;;;19.05;8.90;;;15.20;99.90;;;;;;4954945;29;20050;-68
2022/10/30 01:44:28;;;;;;;18.23;8.35;;;15.10;99.90;;;;;;4937876;29;20047;-68
2022/10/30 01:47:44;;;;;;;22.33;9.15;;;15.10;99.90;;;;;;4933570;29;20561;-68
2022/10/30 01:50:31;;;;;;;18.67;9.25;;;15.10;99.90;;;;;;4880277;29;20548;-68
2022/10/30 01:52:57;;;;;;;19.17;8.55;;;14.90;99.90;;;;;;4879505;29;20131;-68
2022/10/30 01:55:46;;;;;;;17.73;8.63;;;15.10;99.90;;;;;;4907720;29;20127;-69
2022/10/30 01:58:36;;;;;;;26.58;9.93;;;15.10;99.90;;;;;;4937415;29;20063;-68
2022/10/30 02:01:03;;;;;;;24.23;10.80;;;15.20;99.90;;;;;;4946416;29;20115;-68
2022/10/30 02:03:28;;;;;;;24.73;9.23;;;15.10;99.90;;;;;;4937467;29;20102;-68
2022/10/30 02:05:54;;;;;;;15.43;8.55;;;15.10;99.90;;;;;;4937454;29;20428;-68
2022/10/30 02:08:23;;;;;;;23.33;9.25;;;15.10;99.90;;;;;;4936739;29;20421;-67
2022/10/30 02:10:51;;;;;;;17.48;8.88;;;15.10;99.90;;;;;;4954347;28;20073;-68
2022/10/30 02:13:17;;;;;;;24.60;8.88;;;;;;;;;;4941138;29;20050;-68
2022/10/30 02:15:43;;;;;;;24.75;10.93;;;15.10;99.90;;;;;;4940709;29;20397;-67
2022/10/30 02:18:10;;;;;;;23.02;9.80;;;15.10;99.90;;;;;;4958453;29;20039;-68
2022/10/30 02:20:36;;;;;;;17.52;8.18;;;15.30;99.90;;;;;;4958403;29;20126;-67
2022/10/30 02:23:03;;;;;;;19.15;9.25;;;15.10;99.90;;;;;;4957304;29;20075;-67
2022/10/30 02:25:28;;;;;;;18.35;9.55;;;15.20;99.90;;;;;;4958341;29;20577;-68
2022/10/30 02:27:54;;;;;;;22.52;9.43;;;;;;;;;;4958172;29;20067;-68
2022/10/30 02:30:20;;;;;;;15.73;8.85;;;15.00;99.90;;;;;;4938840;29;20103;-68
2022/10/30 02:32:47;;;;;;;22.55;9.65;;;15.00;99.90;;;;;;4958004;29;20497;-67
2022/10/30 02:35:12;;;;;;;16.63;9.30;;;15.10;99.90;;;;;;4957269;29;20382;-68
2022/10/30 02:37:38;;;;;;;21.17;9.57;;;;;;;;;;4958051;29;20067;-68
2022/10/30 02:40:07;;;;;;;16.88;8.52;;;15.00;99.90;;;;;;4958003;29;20035;-68
2022/10/30 02:42:33;;;;;;;17.05;9.15;;;15.10;99.90;;;;;;4940819;29;20062;-67
2022/10/30 02:44:58;;;;;;;18.17;8.82;;;15.00;99.90;;;;;;4939386;29;20454;-68
2022/10/30 02:47:24;;;;;;;23.20;10.52;;;;;;;;;;4958008;29;20114;-68
2022/10/30 02:49:50;;;;;;;22.92;8.27;;;14.90;99.90;;;;;;4940197;29;20053;-68
2022/10/30 02:52:16;;;;;;;24.42;9.45;;;;;;;;;;4957793;29;20556;-67
2022/10/30 02:54:41;;;;;;;22.80;9.60;;;15.00;99.90;;;;;;4940451;29;20553;-68
2022/10/30 02:57:08;;;;;;;20.98;9.85;;;15.00;99.90;;;;;;4938742;29;20055;-67
2022/10/30 02:59:34;;;;;;;22.08;9.20;;;14.90;99.90;;;;;;4957313;29;20039;-67
2022/10/30 03:01:59;;;;;;;19.33;9.70;;;14.90;99.90;;;;;;4939284;29;20051;-68
2022/10/30 03:04:25;;;;;;;24.15;10.07;;;14.70;99.90;;;;;;4951046;29;20047;-67
2022/10/30 03:06:50;;;;;;;15.55;8.43;;;14.90;99.90;;;;;;4957678;29;20046;-67
2022/10/30 03:09:16;;;;;;;19.80;8.75;;;15.10;99.90;;;;;;4957717;29;20097;-68
2022/10/30 03:11:43;;;;;;;19.52;8.48;;;14.90;99.90;;;;;;4940520;29;20398;-68
2022/10/30 03:14:09;;;;;;;20.30;10.13;;;15.00;99.90;;;;;;4956421;29;20063;-68
2022/10/30 03:16:35;;;;;;;16.88;9.63;;;14.80;99.90;;;;;;4955934;29;20508;-68
2022/10/30 03:19:02;;;;;;;20.13;9.30;;;14.80;99.90;;;;;;4940135;29;20043;-68
2022/10/30 03:21:28;;;;;;;19.52;9.18;;;14.80;99.90;;;;;;4939969;29;20467;-67
2022/10/30 03:23:54;;;;;;;19.95;9.52;;;14.80;99.90;;;;;;4956712;28;20501;-68
2022/10/30 03:26:20;;;;;;;21.50;9.90;;;16.20;99.90;;;;;;4957496;29;20039;-68
2022/10/30 03:28:46;;;;;;;19.30;10.20;;;;;;;;;;4939139;29;20469;-67
2022/10/30 03:31:15;;;;;;;19.52;9.45;;;14.70;99.90;;;;;;4939198;29;20094;-67
2022/10/30 03:33:41;;;;;;;19.50;10.15;;;;;;;;;;4938752;29;20039;-68
2022/10/30 03:36:09;;;;;;;20.90;9.75;;;14.70;99.90;;;;;;4939848;29;20140;-67
2022/10/30 03:38:35;;;;;;;23.27;9.07;;;14.70;99.90;;;;;;4956868;29;20036;-67
2022/10/30 03:41:01;;;;;;;21.20;10.25;;;14.80;99.90;;;;;;4957210;29;20039;-68
2022/10/30 03:43:27;;;;;;;16.60;9.57;;;14.60;99.90;;;;;;4939626;29;20054;-67
2022/10/30 03:45:54;;;;;;;21.90;10.68;;;14.40;99.90;;;;;;4936823;29;20469;-67
2022/10/30 03:48:22;;;;;;;24.05;9.75;;;14.50;99.90;;;;;;4954051;29;20040;-68
2022/10/30 03:50:48;;;;;;;23.08;10.48;;;;;;;;;;4939561;29;20043;-68
2022/10/30 03:53:14;;;;;;;20.98;10.05;;;14.50;99.90;;;;;;4937348;28;20495;-68
2022/10/30 03:55:40;;;;;;;21.50;11.07;;;14.30;99.90;;;;;;4956532;28;20055;-68
2022/10/30 03:58:06;;;;;;;22.67;9.73;;;14.40;99.90;;;;;;4956950;28;20053;-67
2022/10/30 04:00:33;;;;;;;19.55;10.57;;;14.40;99.90;;;;;;4956743;29;20126;-68
2022/10/30 04:02:59;;;;;;;19.85;9.30;;;14.40;99.90;;;;;;4954000;29;20039;-68
2022/10/30 04:05:25;;;;;;;25.38;10.85;;;14.40;99.90;;;;;;4956388;29;20039;-67
2022/10/30 04:08:02;;;;;;;22.80;9.23;;;14.40;99.90;;;;;;4956397;29;20118;-68
2022/10/30 04:10:28;;;;;;;20.73;10.77;;;14.40;99.90;;;;;;4939038;29;20375;-68
2022/10/30 04:13:02;;;;;;;22.10;11.18;;;14.30;99.90;;;;;;4937838;29;20054;-67
2022/10/30 04:15:27;;;;;;;19.95;10.40;;;14.30;99.90;;;;;;4955432;29;20046;-68
2022/10/30 04:17:53;;;;;;;17.83;9.20;;;14.20;99.90;;;;;;4955137;29;20461;-68
2022/10/30 04:20:21;;;;;;;30.73;10.82;;;14.30;99.90;;;;;;4956277;29;20031;-68
2022/10/30 04:22:46;;;;;;;22.77;9.75;;;14.20;99.90;;;;;;4955978;29;20035;-68
2022/10/30 04:25:12;;;;;;;17.00;9.63;;;14.30;99.90;;;;;;4955970;29;20035;-67
2022/10/30 04:27:40;;;;;;;21.85;11.05;;;14.30;99.90;;;;;;4956256;28;20102;-68
2022/10/30 04:30:06;;;;;;;16.70;8.98;;;14.30;99.90;;;;;;4938024;29;20046;-67
2022/10/30 04:32:31;;;;;;;19.90;10.82;;;14.30;99.90;;;;;;4956053;29;20130;-68
2022/10/30 04:34:57;;;;;;;21.27;10.48;;;14.40;99.90;;;;;;4937884;29;20082;-68
2022/10/30 04:37:22;;;;;;;23.92;11.02;;;14.40;99.90;;;;;;4955455;29;20036;-68
2022/10/30 04:39:49;;;;;;;24.77;10.27;;;14.40;99.90;;;;;;4947121;29;20043;-67
2022/10/30 04:42:14;;;;;;;19.58;10.23;;;14.30;99.90;;;;;;4956055;29;20043;-68
2022/10/30 04:44:40;;;;;;;21.90;10.05;;;14.40;99.90;;;;;;4955942;28;20046;-68
2022/10/30 04:47:05;;;;;;;21.52;10.10;;;14.40;99.90;;;;;;4955733;29;20047;-68
2022/10/30 04:49:31;;;;;;;21.52;10.77;;;14.40;99.90;;;;;;4922650;29;20047;-68
2022/10/30 04:51:57;;;;;;;26.10;10.50;;;;;;;;;;4955293;29;20039;-68
2022/10/30 04:54:22;;;;;;;25.67;10.18;;;14.20;99.90;;;;;;4954055;28;20043;-67
2022/10/30 04:56:48;;;;;;;17.67;9.68;;;14.20;99.90;;;;;;4955583;28;20063;-68
2022/10/30 04:59:14;;;;;;;23.63;11.02;;;14.20;99.90;;;;;;4955478;29;20046;-67
2022/10/30 05:01:40;;;;;;;26.00;11.30;;;;;;;;;;4954660;29;20053;-68
2022/10/30 05:04:05;;;;;;;20.02;11.18;;;14.10;99.90;;;;;;4955481;29;20053;-67
2022/10/30 05:06:32;;;;;;;21.95;10.93;;;14.20;99.90;;;;;;4937858;28;20043;-67
2022/10/30 05:08:58;;;;;;;29.23;11.18;;;;;;;;;;4955501;29;20074;-67
2022/10/30 05:11:23;;;;;;;20.90;10.13;;;14.10;99.90;;;;;;4955518;29;20577;-67
2022/10/30 05:13:49;;;;;;;20.70;10.98;;;14.20;99.90;;;;;;4955373;29;20118;-68
2022/10/30 05:16:15;;;;;;;19.95;11.05;;;14.30;99.90;;;;;;4935988;29;20058;-68
2022/10/30 05:18:40;;;;;;;19.25;10.57;;;14.10;99.90;;;;;;4955309;29;20039;-67
2022/10/30 05:21:06;;;;;;;21.52;11.25;;;;;;;;;;4954597;28;20039;-67
2022/10/30 05:23:32;;;;;;;24.70;10.73;;;14.00;99.90;;;;;;4937372;29;20051;-67
2022/10/30 05:26:00;;;;;;;22.02;10.57;;;14.10;99.90;;;;;;4955371;29;20386;-67
2022/10/30 05:28:26;;;;;;;19.40;10.68;;;;;;;;;;4938066;29;20074;-67
2022/10/30 05:30:53;;;;;;;22.98;11.32;;;14.00;99.90;;;;;;4954314;29;20074;-67
2022/10/30 05:33:19;;;;;;;18.17;10.70;;;13.80;99.90;;;;;;4937778;29;20042;-67
2022/10/30 05:35:45;;;;;;;23.10;10.63;;;;;;;;;;4953448;28;20491;-67
2022/10/30 05:38:11;;;;;;;20.60;9.88;;;13.80;99.90;;;;;;4954459;29;20114;-67
2022/10/30 05:40:37;;;;;;;21.38;11.98;;;13.40;99.90;;;;;;4955041;29;20080;-67
2022/10/30 05:43:04;;;;;;;20.30;10.32;;;13.50;99.90;;;;;;4954004;28;20074;-67
2022/10/30 05:45:30;;;;;;;23.70;11.55;;;13.60;99.90;;;;;;4936809;29;20049;-68
2022/10/30 05:48:02;;;;;;;21.08;10.45;;;13.60;99.90;;;;;;4954982;28;20043;-67
2022/10/30 05:50:29;;;;;;;24.52;11.10;;;;;;;;;;4954702;29;20041;-68
2022/10/30 05:52:56;;;;;;;17.30;10.52;;;13.50;99.90;;;;;;4954857;28;20390;-67
2022/10/30 05:55:21;;;;;;;18.25;10.02;;;13.60;99.90;;;;;;4954729;29;20042;-69
2022/10/30 05:57:47;;;;;;;24.60;13.13;;;13.50;99.90;;;;;;4954614;29;20035;-67
2022/10/30 06:00:13;;;;;;;23.60;11.35;;;13.50;99.90;;;;;;4952783;29;20039;-67
2022/10/30 06:02:39;;;;;;;22.13;11.70;;;13.50;99.90;;;;;;4954652;29;20075;-67
2022/10/30 06:05:05;;;;;;;21.05;10.98;;;13.40;99.90;;;;;;4935607;29;20081;-67
2022/10/30 06:07:30;;;;;;;21.52;11.45;;;13.40;99.90;;;;;;4954721;29;20043;-67
2022/10/30 06:09:56;;;;;;;24.35;11.27;;;;;;;;;;4949830;28;20043;-67
2022/10/30 06:12:22;;;;;;;28.90;11.43;;;13.40;99.90;;;;;;4940470;28;20036;-68
2022/10/30 06:14:47;;;;;;;22.13;10.98;;;13.50;99.90;;;;;;4934941;28;20051;-67
2022/10/30 06:17:13;;;;;;;24.20;10.88;;;;;;;;;;4953516;28;20054;-68
2022/10/30 06:19:39;;;;;;;20.25;11.00;;;;;;;;;;4936650;28;20055;-67
2022/10/30 06:22:04;;;;;;;21.30;11.93;;;13.20;99.90;;;;;;4952932;28;20039;-67
2022/10/30 06:24:30;;;;;;;25.15;13.10;;;;;;;;;;4936740;28;20437;-67
2022/10/30 06:26:56;;;;;;;20.52;10.88;;;13.40;99.90;;;;;;4939476;28;20458;-67
2022/10/30 06:29:22;;;;;;;21.95;11.50;;;;;;;;;;4935487;29;20178;-67
2022/10/30 06:31:48;;;;;;;22.00;10.82;;;13.30;99.90;;;;;;4953866;28;20414;-68
2022/10/30 06:34:13;;;;;;;24.77;11.23;;;13.30;99.90;;;;;;4952741;28;20039;-68
2022/10/30 06:36:39;;;;;;;18.88;11.18;;;13.30;99.90;;;;;;4954049;28;20046;-67
2022/10/30 06:39:04;;;;;;;18.67;11.30;;;13.30;99.90;;;;;;4936811;29;20045;-68
2022/10/30 06:41:30;;;;;;;20.50;11.23;;;13.30;99.90;;;;;;4951149;29;20126;-67
2022/10/30 06:43:56;;;;;;;21.23;10.57;;;13.20;99.90;;;;;;4936988;29;20066;-68
2022/10/30 06:46:21;;;;;;;23.10;11.20;;;13.40;99.90;;;;;;4954494;29;20039;-68
2022/10/30 06:48:47;;;;;;;25.02;11.13;;;13.30;99.90;;;;;;4952367;28;20040;-68
2022/10/30 06:51:15;;;;;;;21.98;11.60;;;13.30;99.90;;;;;;4950986;29;20055;-67
2022/10/30 06:53:40;;;;;;;24.75;11.55;;;13.30;99.90;;;;;;4952436;29;20050;-67
2022/10/30 06:56:07;;;;;;;25.58;11.48;;;13.40;99.90;;;;;;4950043;28;20047;-67
2022/10/30 06:58:37;;;;;;;19.58;11.05;;;13.70;99.90;;;;;;4956599;28;20047;-67
2022/10/30 07:01:06;;;;;;;25.10;12.75;;;13.60;99.90;;;;;;4954511;28;20027;-65
2022/10/30 07:03:33;;;;;;;22.85;11.07;;;13.70;99.90;;;;;;4934302;29;20044;-67
2022/10/30 07:05:59;;;;;;;22.75;11.43;;;13.80;99.90;;;;;;4933087;29;20088;-66
2022/10/30 07:08:25;;;;;;;23.02;12.18;;;13.70;99.90;;;;;;4956581;29;20563;-66
2022/10/30 07:10:51;;;;;;;23.20;11.68;;;13.60;99.90;;;;;;4939612;29;20047;-66
2022/10/30 07:13:16;;;;;;;23.90;11.90;;;13.90;99.90;;;;;;4940353;29;20054;-66
2022/10/30 07:15:42;;;;;;;26.15;11.65;;;13.70;99.90;;;;;;4956743;28;20396;-67
2022/10/30 07:18:09;;;;;;;31.83;12.80;;;13.50;99.90;;;;;;4940213;28;20027;-65
2022/10/30 07:20:35;;;;;;;24.42;12.80;;;13.50;99.90;;;;;;4922540;28;20051;-66
2022/10/30 07:23:01;;;;;;;18.40;11.43;;;;;;;;;;4923061;29;20130;-66
2022/10/30 07:25:27;;;;;;;20.38;11.65;;;13.80;99.90;;;;;;4938112;29;20536;-64
2022/10/30 07:27:54;;;;;;;17.58;11.70;;;13.70;99.90;;;;;;4953117;28;20039;-64
2022/10/30 07:30:22;;;;;;;23.00;11.35;;;13.80;99.90;;;;;;4938767;29;20039;-65
2022/10/30 07:33:01;;;;;;;24.25;11.50;;;13.90;99.90;;;;;;4944217;28;20113;-64
2022/10/30 07:35:27;;;;;;;22.17;12.15;;;14.10;99.90;;;;;;4938289;29;20501;-65
2022/10/30 07:37:53;;;;;;;23.25;11.38;;;14.10;99.90;;;;;;4956398;29;20098;-66
2022/10/30 07:40:19;;;;;;;19.77;11.23;;;14.10;99.90;;;;;;4955996;29;20047;-66
2022/10/30 07:42:45;;;;;;;19.10;10.65;;;14.30;99.90;;;;;;4937699;28;20122;-66
2022/10/30 07:45:11;;;;;;;25.52;11.98;;;;;;;;;;4955068;28;20047;-65
2022/10/30 07:47:43;;;;;;;24.17;11.32;;;14.40;99.90;;;;;;4955325;28;20047;-65
2022/10/30 07:50:09;;;;;;;27.77;10.50;;;14.40;99.90;;;;;;4956063;28;20050;-65
2022/10/30 07:52:34;;;;;;;31.63;12.23;;;14.60;99.90;;;;;;4936654;29;20435;-65
2022/10/30 07:55:00;;;;;;;25.27;12.00;;;14.70;99.90;;;;;;4956166;29;20050;-65
2022/10/30 07:57:26;;;;;;;23.52;11.18;;;;;;;;;;4954722;28;20446;-66
2022/10/30 07:59:52;;;;;;;20.73;10.80;;;;;;;;;;4955827;29;20122;-65
2022/10/30 08:02:17;;;;;;;25.60;10.85;;;14.90;99.90;;;;;;4936417;29;20043;-65
2022/10/30 08:04:43;;;;;;;17.25;10.55;;;15.00;99.90;;;;;;4934916;29;20559;-65
2022/10/30 08:07:08;;;;;;;25.13;11.20;;;15.20;99.90;;;;;;4947096;29;20477;-66
2022/10/30 08:09:34;;;;;;;26.30;11.40;;;15.40;99.90;;;;;;4954635;28;20063;-65
2022/10/30 08:11:59;;;;;;;17.70;9.88;;;15.60;99.90;;;;;;4937083;29;20042;-65
2022/10/30 08:14:25;;;;;;;24.00;11.05;;;15.80;99.90;;;;;;4935357;29;20051;-65
2022/10/30 08:16:51;;;;;;;18.98;10.65;;;15.90;99.90;;;;;;4921908;29;20046;-65
2022/10/30 08:19:16;;;;;;;22.88;10.63;;;15.90;99.90;;;;;;4938416;29;20050;-66
2022/10/30 08:21:42;;;;;;;19.20;10.25;;;16.20;99.90;;;;;;4953608;29;20047;-64
2022/10/30 08:24:07;;;;;;;20.75;10.38;;;16.40;99.90;;;;;;4938478;29;20035;-64
2022/10/30 08:26:34;;;;;;;20.15;10.32;;;16.30;99.90;;;;;;4955420;29;20490;-65
2022/10/30 08:29:00;;;;;;;22.98;10.30;;;16.40;99.90;;;;;;4936517;29;20122;-65
2022/10/30 08:31:25;;;;;;;24.88;11.73;;;16.90;99.90;;;;;;4953774;29;20573;-65
2022/10/30 08:33:51;;;;;;;20.35;9.82;;;17.20;99.90;;;;;;4955326;29;20027;-65
2022/10/30 08:36:16;;;;;;;19.60;9.98;;;17.30;99.90;;;;;;4936391;29;20505;-65
2022/10/30 08:38:42;;;;;;;18.13;9.02;;;17.70;99.90;;;;;;4937959;28;20486;-65
2022/10/30 08:41:07;;;;;;;17.80;9.90;;;18.40;99.90;;;;;;4936445;29;20050;-65
2022/10/30 08:43:33;;;;;;;21.13;8.43;;;19.80;99.90;;;;;;4937998;28;20071;-65
2022/10/30 08:45:59;;;;;;;16.63;8.18;;;22.60;99.90;;;;;;4954054;28;20477;-65
2022/10/30 08:48:24;;;;;;;14.40;7.68;;;22.40;99.90;;;;;;4955308;29;20039;-65
2022/10/30 08:50:50;;;;;;;18.65;8.60;;;23.50;99.90;;;;;;4952668;29;20070;-65
2022/10/30 08:53:15;;;;;;;15.52;8.13;;;25.40;99.90;;;;;;4921773;29;20054;-66
2022/10/30 08:55:41;;;;;;;17.35;7.28;;;25.00;99.90;;;;;;4953984;29;20058;-65
2022/10/30 08:58:07;;;;;;;16.70;7.47;;;25.30;99.90;;;;;;4954879;28;20035;-66
2022/10/30 09:00:33;;;;;;;18.38;8.25;;;25.10;99.90;;;;;;4927387;29;20074;-66
2022/10/30 09:02:58;;;;;;;20.00;7.13;;;24.90;99.90;;;;;;4953654;29;20043;-66
2022/10/30 09:05:24;;;;;;;17.00;8.05;;;25.10;99.90;;;;;;4952761;29;20549;-66
2022/10/30 09:07:55;;;;;;;22.45;7.90;;;25.70;99.90;;;;;;4937407;29;20062;-66
2022/10/30 09:10:21;;;;;;;14.40;6.43;;;26.40;99.90;;;;;;4938372;29;20047;-66
2022/10/30 09:12:46;;;;;;;16.65;8.10;;;26.50;99.90;;;;;;4955291;29;20066;-66
2022/10/30 09:15:12;;;;;;;16.10;7.28;;;27.10;99.90;;;;;;4954713;29;20409;-66
2022/10/30 09:17:37;;;;;;;19.55;7.88;;;26.10;99.90;;;;;;4938405;29;20508;-66
2022/10/30 09:20:03;;;;;;;18.02;7.03;;;25.70;99.90;;;;;;4952831;28;20557;-65
2022/10/30 09:22:29;;;;;;;14.18;6.90;;;24.90;99.90;;;;;;4937823;29;20054;-65
2022/10/30 09:24:54;;;;;;;15.45;7.40;;;23.90;99.90;;;;;;4937935;29;20406;-65
2022/10/30 09:27:20;;;;;;;19.92;7.60;;;23.40;99.90;;;;;;4955118;29;20039;-66
2022/10/30 09:29:45;;;;;;;14.70;7.88;;;23.00;99.90;;;;;;4937269;29;20134;-65
2022/10/30 09:32:11;;;;;;;17.42;7.45;;;23.40;99.90;;;;;;4954900;29;20439;-66
2022/10/30 09:34:38;;;;;;;15.90;7.35;;;23.20;99.90;;;;;;4936503;29;20130;-66
2022/10/30 09:37:04;;;;;;;17.42;8.52;;;23.30;99.90;;;;;;4938054;29;20069;-65
2022/10/30 09:39:30;;;;;;;15.68;7.47;;;22.90;99.90;;;;;;4955083;29;20050;-65
2022/10/30 09:42:35;;;;;;;17.13;8.20;;;22.50;99.90;;;;;;4937803;29;20047;-66
2022/10/30 09:45:21;;;;;;;19.88;8.18;;;22.50;99.90;;;;;;4954178;29;20506;-66
2022/10/30 09:48:01;;;;;;;15.07;8.75;;;23.10;99.90;;;;;;4953014;29;20055;-66
2022/10/30 09:50:38;;;;;;;17.75;7.65;;;23.10;99.90;;;;;;4952584;29;20050;-66
2022/10/30 09:53:09;;;;;;;18.27;6.95;;;22.80;99.90;;;;;;4936895;29;20039;-66
2022/10/30 09:55:53;;;;;;;19.33;7.38;;;22.60;99.90;;;;;;4954699;29;20051;-66
2022/10/30 09:58:37;;;;;;;16.55;7.65;;;22.30;99.90;;;;;;4933632;29;20576;-65
2022/10/30 10:01:17;;;;;;;19.63;8.43;;;22.20;99.90;;;;;;4937641;29;20513;-66
2022/10/30 10:04:22;;;;;;;16.55;8.40;;;21.90;99.90;;;;;;4951570;29;20074;-66
2022/10/30 10:06:53;;;;;;;19.83;8.18;;;21.50;99.90;;;;;;4929422;29;20078;-66
2022/10/30 10:09:22;;;;;;;18.38;7.90;;;21.50;99.90;;;;;;4954601;29;20063;-65
2022/10/30 10:11:54;;;;;;;19.13;9.02;;;21.30;99.90;;;;;;4937699;29;20047;-66
2022/10/30 10:14:26;;;;;;;18.58;8.57;;;20.80;99.90;;;;;;4937191;29;20039;-66
2022/10/30 10:16:54;;;;;;;20.02;8.05;;;20.70;99.90;;;;;;4953227;29;20067;-66
2022/10/30 10:19:39;;;;;;;19.95;8.57;;;20.60;99.90;;;;;;4937648;29;20095;-67
2022/10/30 10:22:20;;;;;;;22.75;8.85;;;20.50;99.90;;;;;;4946006;29;20529;-65
2022/10/30 10:24:46;;;;;;;17.48;9.20;;;20.50;99.90;;;;;;4954471;28;20126;-65
2022/10/30 10:27:36;;;;;;;19.77;8.48;;;20.30;99.90;;;;;;4952631;29;20035;-65
2022/10/30 10:30:10;;;;;;;19.33;8.95;;;20.20;99.90;;;;;;4952198;29;20066;-66
2022/10/30 10:33:01;;;;;;;17.03;7.70;;;20.40;99.90;;;;;;4937436;29;20520;-66
2022/10/30 10:35:59;;;;;;;18.42;7.07;;;20.60;99.90;;;;;;4940743;29;20098;-65
2022/10/30 10:38:46;;;;;;;13.65;6.57;;;20.90;99.90;;;;;;4952825;28;20039;-65
2022/10/30 10:41:31;;;;;;;20.35;7.88;;;20.70;99.90;;;;;;4940219;29;20047;-65
2022/10/30 10:44:15;;;;;;;21.92;8.23;;;20.60;99.90;;;;;;4955752;28;20050;-65
2022/10/30 10:47:08;;;;;;;16.27;7.07;;;20.80;99.90;;;;;;4936117;29;20090;-66
2022/10/30 10:50:34;;;;;;;17.08;6.22;;;20.80;99.90;;;;;;4939885;29;20039;-65
2022/10/30 10:53:05;;;;;;;15.10;5.68;;;21.00;99.90;;;;;;4898544;29;20048;-65
2022/10/30 10:55:35;;;;;;;14.70;5.45;;;21.00;99.90;;;;;;4882390;29;20056;-65
2022/10/30 10:58:35;;;;;;;16.10;6.07;;;20.80;99.90;;;;;;4925570;29;20043;-65
2022/10/30 11:01:01;;;;;;;17.27;7.63;;;20.60;99.90;;;;;;4955595;29;20035;-66
2022/10/30 11:04:04;;;;;;;18.52;7.30;;;20.40;99.90;;;;;;4951326;29;20406;-65
2022/10/30 11:06:37;;;;;;;14.50;6.65;;;20.40;99.90;;;;;;4926892;28;20055;-65
2022/10/30 11:09:20;;;;;;;12.52;5.80;;;20.30;99.90;;;;;;4955311;28;20047;-65
2022/10/30 11:11:54;;;;;;;13.90;5.25;;;20.40;99.90;;;;;;4934441;28;20102;-65
2022/10/30 11:14:22;;;;;;;21.08;6.53;;;22.20;99.90;;;;;;4935309;28;20054;-64
2022/10/30 11:16:50;;;;;;;16.05;6.30;;;20.60;99.90;;;;;;4956333;28;20398;-65
2022/10/30 11:19:16;;;;;;;14.60;6.22;;;20.70;99.90;;;;;;4956258;28;20047;-65
2022/10/30 11:21:46;;;;;;;16.27;6.88;;;20.40;99.90;;;;;;4954171;28;20081;-65
2022/10/30 11:24:32;;;;;;;17.38;7.00;;;20.30;99.90;;;;;;4921692;28;20039;-64
2022/10/30 11:27:16;;;;;;;15.88;7.40;;;20.40;99.90;;;;;;4938194;29;20098;-65
2022/10/30 11:30:05;;;;;;;24.63;9.35;;;20.40;99.90;;;;;;4938429;29;20514;-65
2022/10/30 11:32:32;;;;;;;15.82;8.35;;;20.60;99.90;;;;;;4936572;29;20054;-65
2022/10/30 11:35:02;;;;;;;17.55;7.53;;;20.50;99.90;;;;;;4938683;29;20050;-64
2022/10/30 11:37:30;;;;;;;15.60;7.40;;;20.30;99.90;;;;;;4931608;29;20039;-64
2022/10/30 11:40:15;;;;;;;16.58;6.22;;;20.30;99.90;;;;;;4937841;29;20649;-64
2022/10/30 11:42:46;;;;;;;;;;;21.30;99.90;;;;;;4933742;29;20081;-64
2022/10/30 11:45:23;;;;;;;14.57;6.13;;;20.00;99.90;;;;;;4955032;29;19926;-64
2022/10/30 11:47:49;;;;;;;14.00;6.80;;;20.40;99.90;;;;;;4951895;29;20039;-66
2022/10/30 11:50:28;;;;;;;20.42;7.50;;;20.50;99.90;;;;;;4952150;29;20038;-65
2022/10/30 11:53:00;;;;;;;15.13;6.65;;;20.40;99.90;;;;;;4938667;29;20489;-63
2022/10/30 11:55:34;;;;;;;18.13;6.78;;;20.50;99.90;;;;;;4952307;28;20047;-63
2022/10/30 11:58:00;;;;;;;19.17;6.63;;;20.20;99.90;;;;;;4936132;29;20039;-63
2022/10/30 12:00:31;;;;;;;14.50;6.75;;;20.10;99.90;;;;;;4929443;29;20039;-64
2022/10/30 12:03:02;;;;;;;17.23;6.65;;;20.20;99.90;;;;;;4941053;28;20082;-63
2022/10/30 12:05:38;;;;;;;18.50;6.60;;;20.30;99.90;;;;;;4924463;29;20046;-62
2022/10/30 12:08:07;;;;;;;15.98;6.40;;;20.20;99.90;;;;;;4939006;29;20177;-63
2022/10/30 12:10:51;;;;;;;16.63;6.70;;;20.20;99.90;;;;;;4955766;29;20379;-63
2022/10/30 12:13:18;;;;;;;14.02;6.68;;;20.20;99.90;;;;;;4936693;29;20047;-63
2022/10/30 12:15:47;;;;;;;16.73;5.45;;;20.40;99.90;;;;;;4938357;29;20406;-62
2022/10/30 12:18:25;;;;;;;12.65;5.68;;;20.30;99.90;;;;;;4938285;29;20043;-63
2022/10/30 12:20:56;;;;;;;15.07;5.70;;;20.30;99.90;;;;;;4938306;29;20122;-63
2022/10/30 12:23:24;;;;;;;11.48;4.57;;;20.20;99.90;;;;;;4955409;28;20153;-64
2022/10/30 12:26:11;;;;;;;13.30;4.95;;;20.10;99.90;;;;;;4955433;29;20054;-63
2022/10/30 12:28:38;;;;;;;12.00;4.32;;;20.20;99.90;;;;;;4930122;29;20043;-63
2022/10/30 12:31:16;;;;;;;16.67;4.97;;;20.10;99.90;;;;;;4955363;29;20062;-63
2022/10/30 12:33:42;;;;;;;16.00;4.40;;;20.00;99.90;;;;;;4932459;29;20036;-64
2022/10/30 12:36:20;;;;;;;17.35;5.20;;;20.10;99.90;;;;;;4922454;29;20505;-63
2022/10/30 12:39:18;;;;;;;12.95;6.18;;;20.20;99.90;;;;;;4955128;29;20433;-63
2022/10/30 12:41:49;;;;;;;10.95;4.97;;;20.10;99.90;;;;;;4945383;29;20545;-64
2022/10/30 12:44:27;;;;;;;13.77;4.72;;;20.20;99.90;;;;;;4955881;29;20171;-64
2022/10/30 12:46:58;;;;;;;12.65;4.47;;;20.30;99.90;;;;;;4955909;29;20039;-63
2022/10/30 12:49:29;;;;;;;14.02;4.68;;;20.40;99.90;;;;;;4937784;29;20043;-65
2022/10/30 12:52:10;;;;;;;12.88;5.30;;;20.40;99.90;;;;;;4932825;29;20054;-64
2022/10/30 12:55:06;;;;;;;18.40;7.43;;;20.40;99.90;;;;;;4938019;28;20047;-64
2022/10/30 12:57:36;;;;;;;18.85;5.60;;;20.30;99.90;;;;;;4938277;29;20055;-64